sensor_id;sensor_type;location;lat;lon;timestamp;P1;durP1;ratioP1;P2;durP2;ratioP2
10092;SDS011;5085;48.092;11.484;2022-11-20T00:01:03;2.00;;;1.02;;
10092;SDS011;5085;48.092;11.484;2022-11-20T00:03:34;1.77;;;0.90;;
10092;SDS011;5085;48.092;11.484;2022-11-20T00:06:03;2.72;;;1.27;;
10092;SDS011;5085;48.092;11.484;2022-11-20T00:08:32;2.67;;;1.08;;
10092;SDS011;5085;48.092;11.484;2022-11-20T00:11:09;1.58;;;0.90;;
10092;SDS011;5085;48.092;11.484;2022-11-20T00:13:36;2.05;;;0.88;;
10092;SDS011;5085;48.092;11.484;2022-11-20T00:16:03;3.58;;;1.27;;
10092;SDS011;5085;48.092;11.484;2022-11-20T00:18:32;1.90;;;1.00;;
10092;SDS011;5085;48.092;11.484;2022-11-20T00:21:02;1.48;;;0.73;;
10092;SDS011;5085;48.092;11.484;2022-11-20T00:23:30;1.83;;;0.95;;
10092;SDS011;5085;48.092;11.484;2022-11-20T00:25:56;2.08;;;1.20;;
10092;SDS011;5085;48.092;11.484;2022-11-20T00:28:27;2.40;;;1.23;;
10092;SDS011;5085;48.092;11.484;2022-11-20T00:30:59;3.35;;;1.45;;
10092;SDS011;5085;48.092;11.484;2022-11-20T00:33:39;2.00;;;1.15;;
10092;SDS011;5085;48.092;11.484;2022-11-20T00:36:09;4.32;;;1.13;;
10092;SDS011;5085;48.092;11.484;2022-11-20T00:38:37;2.35;;;1.23;;
10092;SDS011;5085;48.092;11.484;2022-11-20T00:41:07;1.98;;;1.05;;
10092;SDS011;5085;48.092;11.484;2022-11-20T00:43:36;3.13;;;1.10;;
10092;SDS011;5085;48.092;11.484;2022-11-20T00:46:09;3.33;;;1.27;;
10092;SDS011;5085;48.092;11.484;2022-11-20T00:48:38;1.80;;;1.00;;
10092;SDS011;5085;48.092;11.484;2022-11-20T00:51:04;3.45;;;1.45;;
10092;SDS011;5085;48.092;11.484;2022-11-20T00:53:30;2.45;;;1.15;;
10092;SDS011;5085;48.092;11.484;2022-11-20T00:55:58;2.08;;;1.20;;
10092;SDS011;5085;48.092;11.484;2022-11-20T00:58:28;2.30;;;1.20;;
10092;SDS011;5085;48.092;11.484;2022-11-20T01:00:59;2.30;;;1.10;;
10092;SDS011;5085;48.092;11.484;2022-11-20T01:03:31;3.05;;;1.20;;
10092;SDS011;5085;48.092;11.484;2022-11-20T01:06:01;2.08;;;1.00;;
10092;SDS011;5085;48.092;11.484;2022-11-20T01:08:38;1.73;;;1.10;;
10092;SDS011;5085;48.092;11.484;2022-11-20T01:11:05;5.28;;;1.30;;
10092;SDS011;5085;48.092;11.484;2022-11-20T01:13:36;2.92;;;1.33;;
10092;SDS011;5085;48.092;11.484;2022-11-20T01:16:09;2.20;;;1.00;;
10092;SDS011;5085;48.092;11.484;2022-11-20T01:18:43;2.70;;;1.13;;
10092;SDS011;5085;48.092;11.484;2022-11-20T01:21:12;1.90;;;0.90;;
10092;SDS011;5085;48.092;11.484;2022-11-20T01:23:40;1.98;;;1.05;;
10092;SDS011;5085;48.092;11.484;2022-11-20T01:26:08;2.72;;;1.00;;
10092;SDS011;5085;48.092;11.484;2022-11-20T01:28:36;1.25;;;0.80;;
10092;SDS011;5085;48.092;11.484;2022-11-20T01:31:10;2.00;;;1.02;;
10092;SDS011;5085;48.092;11.484;2022-11-20T01:36:14;2.40;;;1.20;;
10092;SDS011;5085;48.092;11.484;2022-11-20T01:38:40;5.38;;;1.10;;
10092;SDS011;5085;48.092;11.484;2022-11-20T01:41:07;4.55;;;1.20;;
10092;SDS011;5085;48.092;11.484;2022-11-20T01:43:34;3.75;;;1.35;;
10092;SDS011;5085;48.092;11.484;2022-11-20T01:46:02;2.05;;;1.08;;
10092;SDS011;5085;48.092;11.484;2022-11-20T01:48:42;2.72;;;1.30;;
10092;SDS011;5085;48.092;11.484;2022-11-20T01:51:17;3.47;;;1.17;;
10092;SDS011;5085;48.092;11.484;2022-11-20T01:53:51;1.65;;;0.82;;
10092;SDS011;5085;48.092;11.484;2022-11-20T01:56:21;1.70;;;1.00;;
10092;SDS011;5085;48.092;11.484;2022-11-20T01:58:50;2.08;;;1.02;;
10092;SDS011;5085;48.092;11.484;2022-11-20T02:01:19;3.22;;;1.25;;
10092;SDS011;5085;48.092;11.484;2022-11-20T02:03:46;2.30;;;1.08;;
10092;SDS011;5085;48.092;11.484;2022-11-20T02:08:48;3.15;;;1.23;;
10092;SDS011;5085;48.092;11.484;2022-11-20T02:11:15;2.22;;;1.20;;
10092;SDS011;5085;48.092;11.484;2022-11-20T02:13:41;1.55;;;0.93;;
10092;SDS011;5085;48.092;11.484;2022-11-20T02:16:21;1.65;;;0.80;;
10092;SDS011;5085;48.092;11.484;2022-11-20T02:18:47;2.20;;;1.20;;
10092;SDS011;5085;48.092;11.484;2022-11-20T02:21:19;2.70;;;1.10;;
10092;SDS011;5085;48.092;11.484;2022-11-20T02:24:00;1.70;;;1.00;;
10092;SDS011;5085;48.092;11.484;2022-11-20T02:26:29;3.40;;;1.35;;
10092;SDS011;5085;48.092;11.484;2022-11-20T02:28:58;2.05;;;1.10;;
10092;SDS011;5085;48.092;11.484;2022-11-20T02:31:25;2.25;;;1.10;;
10092;SDS011;5085;48.092;11.484;2022-11-20T02:33:55;3.58;;;1.35;;
10092;SDS011;5085;48.092;11.484;2022-11-20T02:36:22;3.10;;;1.55;;
10092;SDS011;5085;48.092;11.484;2022-11-20T02:38:51;2.22;;;1.10;;
10092;SDS011;5085;48.092;11.484;2022-11-20T02:41:18;2.55;;;1.27;;
10092;SDS011;5085;48.092;11.484;2022-11-20T02:43:44;2.42;;;1.17;;
10092;SDS011;5085;48.092;11.484;2022-11-20T02:46:10;2.67;;;1.13;;
10092;SDS011;5085;48.092;11.484;2022-11-20T02:48:36;5.38;;;1.30;;
10092;SDS011;5085;48.092;11.484;2022-11-20T02:51:02;3.20;;;1.27;;
10092;SDS011;5085;48.092;11.484;2022-11-20T02:53:28;1.83;;;1.05;;
10092;SDS011;5085;48.092;11.484;2022-11-20T02:55:54;2.90;;;1.42;;
10092;SDS011;5085;48.092;11.484;2022-11-20T02:58:20;2.83;;;1.20;;
10092;SDS011;5085;48.092;11.484;2022-11-20T03:00:46;3.90;;;1.60;;
10092;SDS011;5085;48.092;11.484;2022-11-20T03:03:12;2.72;;;1.38;;
10092;SDS011;5085;48.092;11.484;2022-11-20T03:05:38;3.47;;;1.50;;
10092;SDS011;5085;48.092;11.484;2022-11-20T03:08:04;2.90;;;1.42;;
10092;SDS011;5085;48.092;11.484;2022-11-20T03:10:30;2.03;;;1.13;;
10092;SDS011;5085;48.092;11.484;2022-11-20T03:12:56;3.13;;;1.38;;
10092;SDS011;5085;48.092;11.484;2022-11-20T03:15:23;4.15;;;1.63;;
10092;SDS011;5085;48.092;11.484;2022-11-20T03:17:52;3.47;;;1.40;;
10092;SDS011;5085;48.092;11.484;2022-11-20T03:20:19;2.90;;;1.10;;
10092;SDS011;5085;48.092;11.484;2022-11-20T03:22:45;2.42;;;1.38;;
10092;SDS011;5085;48.092;11.484;2022-11-20T03:25:11;3.03;;;1.48;;
10092;SDS011;5085;48.092;11.484;2022-11-20T03:27:37;2.72;;;1.40;;
10092;SDS011;5085;48.092;11.484;2022-11-20T03:30:03;2.50;;;1.40;;
10092;SDS011;5085;48.092;11.484;2022-11-20T03:32:31;2.60;;;1.05;;
10092;SDS011;5085;48.092;11.484;2022-11-20T03:34:57;2.20;;;1.30;;
10092;SDS011;5085;48.092;11.484;2022-11-20T03:37:23;3.08;;;1.80;;
10092;SDS011;5085;48.092;11.484;2022-11-20T03:39:49;4.80;;;1.50;;
10092;SDS011;5085;48.092;11.484;2022-11-20T03:42:15;3.75;;;1.60;;
10092;SDS011;5085;48.092;11.484;2022-11-20T03:44:59;2.35;;;1.23;;
10092;SDS011;5085;48.092;11.484;2022-11-20T03:47:25;3.75;;;1.30;;
10092;SDS011;5085;48.092;11.484;2022-11-20T03:49:53;3.30;;;1.35;;
10092;SDS011;5085;48.092;11.484;2022-11-20T03:52:19;4.32;;;1.40;;
10092;SDS011;5085;48.092;11.484;2022-11-20T03:54:45;2.38;;;1.20;;
10092;SDS011;5085;48.092;11.484;2022-11-20T03:57:11;3.47;;;1.40;;
10092;SDS011;5085;48.092;11.484;2022-11-20T03:59:37;2.78;;;1.42;;
10092;SDS011;5085;48.092;11.484;2022-11-20T04:02:03;2.72;;;1.45;;
10092;SDS011;5085;48.092;11.484;2022-11-20T04:04:29;2.22;;;1.13;;
10092;SDS011;5085;48.092;11.484;2022-11-20T04:06:55;5.28;;;1.60;;
10092;SDS011;5085;48.092;11.484;2022-11-20T04:09:21;2.53;;;1.10;;
10092;SDS011;5085;48.092;11.484;2022-11-20T04:11:47;3.28;;;1.10;;
10092;SDS011;5085;48.092;11.484;2022-11-20T04:14:13;2.60;;;1.25;;
10092;SDS011;5085;48.092;11.484;2022-11-20T04:16:40;4.03;;;1.50;;
10092;SDS011;5085;48.092;11.484;2022-11-20T04:19:14;5.03;;;1.30;;
10092;SDS011;5085;48.092;11.484;2022-11-20T04:21:41;2.58;;;1.15;;
10092;SDS011;5085;48.092;11.484;2022-11-20T04:24:08;2.88;;;1.55;;
10092;SDS011;5085;48.092;11.484;2022-11-20T04:26:35;2.28;;;1.30;;
10092;SDS011;5085;48.092;11.484;2022-11-20T04:29:02;3.40;;;1.63;;
10092;SDS011;5085;48.092;11.484;2022-11-20T04:31:29;2.28;;;1.15;;
10092;SDS011;5085;48.092;11.484;2022-11-20T04:34:01;2.88;;;1.30;;
10092;SDS011;5085;48.092;11.484;2022-11-20T04:36:29;2.10;;;1.30;;
10092;SDS011;5085;48.092;11.484;2022-11-20T04:39:05;3.17;;;1.58;;
10092;SDS011;5085;48.092;11.484;2022-11-20T04:41:33;2.60;;;1.40;;
10092;SDS011;5085;48.092;11.484;2022-11-20T04:44:01;2.58;;;1.40;;
10092;SDS011;5085;48.092;11.484;2022-11-20T04:46:33;4.05;;;1.48;;
10092;SDS011;5085;48.092;11.484;2022-11-20T04:49:00;2.33;;;1.10;;
10092;SDS011;5085;48.092;11.484;2022-11-20T04:51:26;2.78;;;1.40;;
10092;SDS011;5085;48.092;11.484;2022-11-20T04:53:53;2.88;;;1.45;;
10092;SDS011;5085;48.092;11.484;2022-11-20T04:56:19;3.25;;;1.40;;
10092;SDS011;5085;48.092;11.484;2022-11-20T04:58:45;6.00;;;1.60;;
10092;SDS011;5085;48.092;11.484;2022-11-20T05:03:39;3.38;;;1.70;;
10092;SDS011;5085;48.092;11.484;2022-11-20T05:06:06;3.25;;;1.67;;
10092;SDS011;5085;48.092;11.484;2022-11-20T05:08:33;3.63;;;1.85;;
10092;SDS011;5085;48.092;11.484;2022-11-20T05:11:00;4.15;;;1.92;;
10092;SDS011;5085;48.092;11.484;2022-11-20T05:13:30;2.63;;;1.40;;
10092;SDS011;5085;48.092;11.484;2022-11-20T05:16:03;3.88;;;1.50;;
10092;SDS011;5085;48.092;11.484;2022-11-20T05:18:40;2.75;;;1.33;;
10092;SDS011;5085;48.092;11.484;2022-11-20T05:21:06;1.88;;;1.05;;
10092;SDS011;5085;48.092;11.484;2022-11-20T05:23:33;4.18;;;1.63;;
10092;SDS011;5085;48.092;11.484;2022-11-20T05:26:00;3.05;;;1.60;;
10092;SDS011;5085;48.092;11.484;2022-11-20T05:28:27;2.50;;;1.42;;
10092;SDS011;5085;48.092;11.484;2022-11-20T05:30:54;3.20;;;1.40;;
10092;SDS011;5085;48.092;11.484;2022-11-20T05:33:20;3.45;;;1.60;;
10092;SDS011;5085;48.092;11.484;2022-11-20T05:35:46;3.00;;;1.50;;
10092;SDS011;5085;48.092;11.484;2022-11-20T05:38:14;3.40;;;1.33;;
10092;SDS011;5085;48.092;11.484;2022-11-20T05:40:40;3.88;;;1.40;;
10092;SDS011;5085;48.092;11.484;2022-11-20T05:43:06;3.15;;;1.67;;
10092;SDS011;5085;48.092;11.484;2022-11-20T05:45:32;2.45;;;1.25;;
10092;SDS011;5085;48.092;11.484;2022-11-20T05:47:58;3.72;;;1.35;;
10092;SDS011;5085;48.092;11.484;2022-11-20T05:50:26;2.53;;;1.50;;
10092;SDS011;5085;48.092;11.484;2022-11-20T05:52:53;2.85;;;1.30;;
10092;SDS011;5085;48.092;11.484;2022-11-20T05:55:19;2.30;;;1.17;;
10092;SDS011;5085;48.092;11.484;2022-11-20T05:57:45;3.92;;;1.23;;
10092;SDS011;5085;48.092;11.484;2022-11-20T06:00:11;3.60;;;1.45;;
10092;SDS011;5085;48.092;11.484;2022-11-20T06:02:37;1.80;;;0.93;;
10092;SDS011;5085;48.092;11.484;2022-11-20T06:05:03;2.80;;;1.30;;
10092;SDS011;5085;48.092;11.484;2022-11-20T06:07:30;2.35;;;1.00;;
10092;SDS011;5085;48.092;11.484;2022-11-20T06:09:56;3.08;;;1.17;;
10092;SDS011;5085;48.092;11.484;2022-11-20T06:12:22;3.00;;;1.27;;
10092;SDS011;5085;48.092;11.484;2022-11-20T06:14:48;2.58;;;1.15;;
10092;SDS011;5085;48.092;11.484;2022-11-20T06:17:14;7.00;;;1.33;;
10092;SDS011;5085;48.092;11.484;2022-11-20T06:19:40;2.83;;;1.20;;
10092;SDS011;5085;48.092;11.484;2022-11-20T06:22:06;2.13;;;1.10;;
10092;SDS011;5085;48.092;11.484;2022-11-20T06:24:32;1.55;;;0.88;;
10092;SDS011;5085;48.092;11.484;2022-11-20T06:26:57;1.70;;;1.05;;
10092;SDS011;5085;48.092;11.484;2022-11-20T06:29:24;2.22;;;1.00;;
10092;SDS011;5085;48.092;11.484;2022-11-20T06:31:50;1.58;;;0.80;;
10092;SDS011;5085;48.092;11.484;2022-11-20T06:34:16;1.52;;;0.75;;
10092;SDS011;5085;48.092;11.484;2022-11-20T06:36:42;1.73;;;0.70;;
10092;SDS011;5085;48.092;11.484;2022-11-20T06:39:08;1.40;;;0.73;;
10092;SDS011;5085;48.092;11.484;2022-11-20T06:41:34;1.05;;;0.70;;
10092;SDS011;5085;48.092;11.484;2022-11-20T06:44:00;1.27;;;0.70;;
10092;SDS011;5085;48.092;11.484;2022-11-20T06:46:26;1.58;;;0.68;;
10092;SDS011;5085;48.092;11.484;2022-11-20T06:48:52;4.65;;;2.42;;
10092;SDS011;5085;48.092;11.484;2022-11-20T06:51:18;9.10;;;3.65;;
10092;SDS011;5085;48.092;11.484;2022-11-20T06:53:44;6.57;;;2.65;;
10092;SDS011;5085;48.092;11.484;2022-11-20T06:56:11;2.42;;;1.35;;
10092;SDS011;5085;48.092;11.484;2022-11-20T06:58:37;1.63;;;0.80;;
10092;SDS011;5085;48.092;11.484;2022-11-20T07:01:10;3.25;;;1.95;;
10092;SDS011;5085;48.092;11.484;2022-11-20T07:03:38;5.32;;;2.42;;
10092;SDS011;5085;48.092;11.484;2022-11-20T07:06:05;10.68;;;3.22;;
10092;SDS011;5085;48.092;11.484;2022-11-20T07:08:31;5.00;;;2.00;;
10092;SDS011;5085;48.092;11.484;2022-11-20T07:10:59;3.83;;;1.80;;
10092;SDS011;5085;48.092;11.484;2022-11-20T07:13:29;9.82;;;4.65;;
10092;SDS011;5085;48.092;11.484;2022-11-20T07:15:58;4.53;;;2.33;;
10092;SDS011;5085;48.092;11.484;2022-11-20T07:18:25;5.15;;;1.70;;
10092;SDS011;5085;48.092;11.484;2022-11-20T07:20:51;4.72;;;2.22;;
10092;SDS011;5085;48.092;11.484;2022-11-20T07:23:18;5.70;;;2.67;;
10092;SDS011;5085;48.092;11.484;2022-11-20T07:25:44;9.52;;;4.07;;
10092;SDS011;5085;48.092;11.484;2022-11-20T07:28:10;9.60;;;4.00;;
10092;SDS011;5085;48.092;11.484;2022-11-20T07:30:36;9.18;;;3.33;;
10092;SDS011;5085;48.092;11.484;2022-11-20T07:33:03;6.28;;;3.33;;
10092;SDS011;5085;48.092;11.484;2022-11-20T07:35:29;7.97;;;2.85;;
10092;SDS011;5085;48.092;11.484;2022-11-20T07:37:55;4.93;;;2.00;;
10092;SDS011;5085;48.092;11.484;2022-11-20T07:40:21;10.65;;;4.28;;
10092;SDS011;5085;48.092;11.484;2022-11-20T07:42:48;13.98;;;4.03;;
10092;SDS011;5085;48.092;11.484;2022-11-20T07:45:18;7.18;;;2.60;;
10092;SDS011;5085;48.092;11.484;2022-11-20T07:47:45;11.10;;;3.55;;
10092;SDS011;5085;48.092;11.484;2022-11-20T07:50:11;10.00;;;3.15;;
10092;SDS011;5085;48.092;11.484;2022-11-20T07:52:37;4.95;;;1.55;;
10092;SDS011;5085;48.092;11.484;2022-11-20T07:55:04;2.63;;;1.23;;
10092;SDS011;5085;48.092;11.484;2022-11-20T07:57:30;4.22;;;1.45;;
10092;SDS011;5085;48.092;11.484;2022-11-20T07:59:56;3.80;;;1.55;;
10092;SDS011;5085;48.092;11.484;2022-11-20T08:02:22;4.47;;;1.70;;
10092;SDS011;5085;48.092;11.484;2022-11-20T08:04:49;4.68;;;2.22;;
10092;SDS011;5085;48.092;11.484;2022-11-20T08:07:15;3.65;;;2.03;;
10092;SDS011;5085;48.092;11.484;2022-11-20T08:09:41;5.10;;;2.47;;
10092;SDS011;5085;48.092;11.484;2022-11-20T08:12:07;3.70;;;2.00;;
10092;SDS011;5085;48.092;11.484;2022-11-20T08:14:52;5.43;;;2.20;;
10092;SDS011;5085;48.092;11.484;2022-11-20T08:17:18;4.43;;;2.20;;
10092;SDS011;5085;48.092;11.484;2022-11-20T08:19:44;2.92;;;1.60;;
10092;SDS011;5085;48.092;11.484;2022-11-20T08:22:10;3.63;;;1.65;;
10092;SDS011;5085;48.092;11.484;2022-11-20T08:24:36;1.65;;;0.88;;
10092;SDS011;5085;48.092;11.484;2022-11-20T08:27:02;2.42;;;1.40;;
10092;SDS011;5085;48.092;11.484;2022-11-20T08:29:28;4.63;;;1.40;;
10092;SDS011;5085;48.092;11.484;2022-11-20T08:31:54;2.97;;;1.73;;
10092;SDS011;5085;48.092;11.484;2022-11-20T08:34:20;4.22;;;1.65;;
10092;SDS011;5085;48.092;11.484;2022-11-20T08:36:46;4.10;;;1.63;;
10092;SDS011;5085;48.092;11.484;2022-11-20T08:39:12;2.20;;;1.13;;
10092;SDS011;5085;48.092;11.484;2022-11-20T08:41:38;3.85;;;1.80;;
10092;SDS011;5085;48.092;11.484;2022-11-20T08:44:07;7.88;;;2.30;;
10092;SDS011;5085;48.092;11.484;2022-11-20T08:46:34;6.10;;;1.00;;
10092;SDS011;5085;48.092;11.484;2022-11-20T08:49:03;2.70;;;1.52;;
10092;SDS011;5085;48.092;11.484;2022-11-20T08:51:30;3.60;;;1.90;;
10092;SDS011;5085;48.092;11.484;2022-11-20T08:53:56;4.65;;;1.75;;
10092;SDS011;5085;48.092;11.484;2022-11-20T08:56:22;2.00;;;0.98;;
10092;SDS011;5085;48.092;11.484;2022-11-20T08:58:49;2.90;;;1.30;;
10092;SDS011;5085;48.092;11.484;2022-11-20T09:01:16;3.13;;;1.80;;
10092;SDS011;5085;48.092;11.484;2022-11-20T09:03:42;2.30;;;1.17;;
10092;SDS011;5085;48.092;11.484;2022-11-20T09:06:08;2.03;;;1.00;;
10092;SDS011;5085;48.092;11.484;2022-11-20T09:08:34;2.05;;;1.13;;
10092;SDS011;5085;48.092;11.484;2022-11-20T09:11:01;2.63;;;0.85;;
10092;SDS011;5085;48.092;11.484;2022-11-20T09:13:29;3.28;;;1.63;;
10092;SDS011;5085;48.092;11.484;2022-11-20T09:18:25;1.95;;;0.75;;
10092;SDS011;5085;48.092;11.484;2022-11-20T09:20:55;1.98;;;0.93;;
10092;SDS011;5085;48.092;11.484;2022-11-20T09:23:22;2.15;;;0.60;;
10092;SDS011;5085;48.092;11.484;2022-11-20T09:25:48;2.03;;;0.70;;
10092;SDS011;5085;48.092;11.484;2022-11-20T09:28:14;1.98;;;0.95;;
10092;SDS011;5085;48.092;11.484;2022-11-20T09:30:40;1.55;;;0.65;;
10092;SDS011;5085;48.092;11.484;2022-11-20T09:33:06;1.52;;;0.75;;
10092;SDS011;5085;48.092;11.484;2022-11-20T09:35:33;2.00;;;0.98;;
10092;SDS011;5085;48.092;11.484;2022-11-20T09:38:03;1.67;;;0.80;;
10092;SDS011;5085;48.092;11.484;2022-11-20T09:40:30;2.17;;;0.95;;
10092;SDS011;5085;48.092;11.484;2022-11-20T09:46:04;2.35;;;0.90;;
10092;SDS011;5085;48.092;11.484;2022-11-20T09:51:53;1.23;;;0.77;;
10092;SDS011;5085;48.092;11.484;2022-11-20T09:54:28;2.72;;;1.15;;
10092;SDS011;5085;48.092;11.484;2022-11-20T09:57:02;1.85;;;0.93;;
10092;SDS011;5085;48.092;11.484;2022-11-20T09:59:42;1.30;;;0.68;;
10092;SDS011;5085;48.092;11.484;2022-11-20T10:02:17;1.15;;;0.65;;
10092;SDS011;5085;48.092;11.484;2022-11-20T10:04:47;0.88;;;0.45;;
10092;SDS011;5085;48.092;11.484;2022-11-20T10:07:30;1.13;;;0.57;;
10092;SDS011;5085;48.092;11.484;2022-11-20T10:10:14;0.90;;;0.50;;
10092;SDS011;5085;48.092;11.484;2022-11-20T10:12:47;1.10;;;0.55;;
10092;SDS011;5085;48.092;11.484;2022-11-20T10:21:20;1.27;;;0.63;;
10092;SDS011;5085;48.092;11.484;2022-11-20T10:30:12;1.70;;;0.80;;
10092;SDS011;5085;48.092;11.484;2022-11-20T10:35:15;1.33;;;0.50;;
10092;SDS011;5085;48.092;11.484;2022-11-20T10:37:49;1.08;;;0.55;;
10092;SDS011;5085;48.092;11.484;2022-11-20T10:45:58;1.23;;;0.50;;
10092;SDS011;5085;48.092;11.484;2022-11-20T10:48:30;1.00;;;0.50;;
10092;SDS011;5085;48.092;11.484;2022-11-20T10:56:34;1.63;;;0.70;;
10092;SDS011;5085;48.092;11.484;2022-11-20T11:01:50;1.33;;;0.63;;
10092;SDS011;5085;48.092;11.484;2022-11-20T11:06:48;1.48;;;0.85;;
10092;SDS011;5085;48.092;11.484;2022-11-20T11:09:16;2.97;;;1.27;;
10092;SDS011;5085;48.092;11.484;2022-11-20T11:11:47;9.38;;;3.90;;
10092;SDS011;5085;48.092;11.484;2022-11-20T11:14:13;13.45;;;5.10;;
10092;SDS011;5085;48.092;11.484;2022-11-20T11:16:54;5.55;;;2.65;;
10092;SDS011;5085;48.092;11.484;2022-11-20T11:19:21;11.38;;;4.95;;
10092;SDS011;5085;48.092;11.484;2022-11-20T11:21:49;11.88;;;5.32;;
10092;SDS011;5085;48.092;11.484;2022-11-20T11:24:22;10.55;;;5.50;;
10092;SDS011;5085;48.092;11.484;2022-11-20T11:26:52;3.47;;;1.95;;
10092;SDS011;5085;48.092;11.484;2022-11-20T11:29:30;2.65;;;1.25;;
10092;SDS011;5085;48.092;11.484;2022-11-20T11:32:06;4.13;;;2.08;;
10092;SDS011;5085;48.092;11.484;2022-11-20T11:34:34;8.05;;;2.25;;
10092;SDS011;5085;48.092;11.484;2022-11-20T11:37:00;3.58;;;2.00;;
10092;SDS011;5085;48.092;11.484;2022-11-20T11:39:29;3.78;;;1.23;;
10092;SDS011;5085;48.092;11.484;2022-11-20T11:42:00;1.98;;;1.00;;
10092;SDS011;5085;48.092;11.484;2022-11-20T11:44:35;4.18;;;1.60;;
10092;SDS011;5085;48.092;11.484;2022-11-20T11:47:29;2.15;;;1.13;;
10092;SDS011;5085;48.092;11.484;2022-11-20T11:50:08;4.47;;;1.80;;
10092;SDS011;5085;48.092;11.484;2022-11-20T11:55:31;2.78;;;1.33;;
10092;SDS011;5085;48.092;11.484;2022-11-20T12:03:58;1.23;;;0.40;;
10092;SDS011;5085;48.092;11.484;2022-11-20T12:06:25;1.50;;;0.70;;
10092;SDS011;5085;48.092;11.484;2022-11-20T12:09:05;1.75;;;0.80;;
10092;SDS011;5085;48.092;11.484;2022-11-20T12:11:53;1.90;;;0.98;;
10092;SDS011;5085;48.092;11.484;2022-11-20T12:16:59;3.08;;;0.90;;
10092;SDS011;5085;48.092;11.484;2022-11-20T12:19:26;2.55;;;0.93;;
10092;SDS011;5085;48.092;11.484;2022-11-20T12:32:36;1.42;;;0.95;;
10092;SDS011;5085;48.092;11.484;2022-11-20T12:38:31;1.67;;;0.85;;
10092;SDS011;5085;48.092;11.484;2022-11-20T12:41:30;2.65;;;0.98;;
10092;SDS011;5085;48.092;11.484;2022-11-20T12:44:59;1.80;;;0.80;;
10092;SDS011;5085;48.092;11.484;2022-11-20T12:59:36;4.65;;;1.17;;
10092;SDS011;5085;48.092;11.484;2022-11-20T13:05:26;4.00;;;1.83;;
10092;SDS011;5085;48.092;11.484;2022-11-20T13:08:00;2.00;;;1.20;;
10092;SDS011;5085;48.092;11.484;2022-11-20T13:13:12;2.13;;;1.00;;
10092;SDS011;5085;48.092;11.484;2022-11-20T13:18:25;2.35;;;1.48;;
10092;SDS011;5085;48.092;11.484;2022-11-20T13:20:52;1.13;;;0.65;;
10092;SDS011;5085;48.092;11.484;2022-11-20T13:23:28;2.20;;;0.80;;
10092;SDS011;5085;48.092;11.484;2022-11-20T13:26:14;2.75;;;0.80;;
10092;SDS011;5085;48.092;11.484;2022-11-20T13:28:42;1.88;;;0.77;;
10092;SDS011;5085;48.092;11.484;2022-11-20T13:33:56;1.73;;;0.80;;
10092;SDS011;5085;48.092;11.484;2022-11-20T13:36:25;1.90;;;0.93;;
10092;SDS011;5085;48.092;11.484;2022-11-20T13:38:53;2.83;;;1.35;;
10092;SDS011;5085;48.092;11.484;2022-11-20T13:44:05;1.73;;;0.60;;
10092;SDS011;5085;48.092;11.484;2022-11-20T13:46:38;2.25;;;0.95;;
10092;SDS011;5085;48.092;11.484;2022-11-20T13:49:14;2.13;;;0.93;;
10092;SDS011;5085;48.092;11.484;2022-11-20T13:51:45;1.45;;;0.50;;
10092;SDS011;5085;48.092;11.484;2022-11-20T13:54:22;2.00;;;0.80;;
10092;SDS011;5085;48.092;11.484;2022-11-20T14:00:17;2.63;;;0.85;;
10092;SDS011;5085;48.092;11.484;2022-11-20T14:08:02;2.85;;;1.30;;
10092;SDS011;5085;48.092;11.484;2022-11-20T14:10:29;2.80;;;1.30;;
10092;SDS011;5085;48.092;11.484;2022-11-20T14:12:56;4.53;;;1.65;;
10092;SDS011;5085;48.092;11.484;2022-11-20T14:17:50;9.15;;;4.15;;
10092;SDS011;5085;48.092;11.484;2022-11-20T14:20:17;6.28;;;2.35;;
10092;SDS011;5085;48.092;11.484;2022-11-20T14:22:49;3.85;;;1.55;;
10092;SDS011;5085;48.092;11.484;2022-11-20T14:27:47;1.85;;;0.80;;
10092;SDS011;5085;48.092;11.484;2022-11-20T14:30:19;3.40;;;1.58;;
10092;SDS011;5085;48.092;11.484;2022-11-20T14:32:49;10.38;;;4.22;;
10092;SDS011;5085;48.092;11.484;2022-11-20T14:35:21;6.10;;;3.15;;
10092;SDS011;5085;48.092;11.484;2022-11-20T14:37:52;5.55;;;2.53;;
10092;SDS011;5085;48.092;11.484;2022-11-20T14:40:29;3.53;;;1.85;;
10092;SDS011;5085;48.092;11.484;2022-11-20T14:42:56;3.83;;;1.80;;
10092;SDS011;5085;48.092;11.484;2022-11-20T14:45:24;5.72;;;2.40;;
10092;SDS011;5085;48.092;11.484;2022-11-20T14:47:52;6.35;;;2.85;;
10092;SDS011;5085;48.092;11.484;2022-11-20T14:50:22;5.35;;;2.42;;
10092;SDS011;5085;48.092;11.484;2022-11-20T14:52:53;5.32;;;2.17;;
10092;SDS011;5085;48.092;11.484;2022-11-20T14:55:28;12.23;;;2.97;;
10092;SDS011;5085;48.092;11.484;2022-11-20T14:58:04;3.92;;;1.40;;
10092;SDS011;5085;48.092;11.484;2022-11-20T15:00:56;6.63;;;2.60;;
10092;SDS011;5085;48.092;11.484;2022-11-20T15:03:30;8.68;;;2.65;;
10092;SDS011;5085;48.092;11.484;2022-11-20T15:06:01;9.07;;;3.42;;
10092;SDS011;5085;48.092;11.484;2022-11-20T15:08:27;12.18;;;4.25;;
10092;SDS011;5085;48.092;11.484;2022-11-20T15:10:53;5.85;;;2.80;;
10092;SDS011;5085;48.092;11.484;2022-11-20T15:15:57;3.42;;;1.80;;
10092;SDS011;5085;48.092;11.484;2022-11-20T15:18:32;2.20;;;0.90;;
10092;SDS011;5085;48.092;11.484;2022-11-20T15:21:06;2.28;;;1.15;;
10092;SDS011;5085;48.092;11.484;2022-11-20T15:23:37;2.20;;;1.00;;
10092;SDS011;5085;48.092;11.484;2022-11-20T15:26:06;1.23;;;0.60;;
10092;SDS011;5085;48.092;11.484;2022-11-20T15:28:34;2.13;;;0.90;;
10092;SDS011;5085;48.092;11.484;2022-11-20T15:31:03;4.65;;;1.73;;
10092;SDS011;5085;48.092;11.484;2022-11-20T15:33:30;4.05;;;1.70;;
10092;SDS011;5085;48.092;11.484;2022-11-20T15:35:57;2.78;;;0.90;;
10092;SDS011;5085;48.092;11.484;2022-11-20T15:38:23;1.17;;;0.55;;
10092;SDS011;5085;48.092;11.484;2022-11-20T15:40:49;1.42;;;0.52;;
10092;SDS011;5085;48.092;11.484;2022-11-20T15:43:15;1.50;;;0.57;;
10092;SDS011;5085;48.092;11.484;2022-11-20T15:45:49;1.42;;;0.70;;
10092;SDS011;5085;48.092;11.484;2022-11-20T15:48:21;1.63;;;0.50;;
10092;SDS011;5085;48.092;11.484;2022-11-20T15:53:29;3.05;;;1.42;;
10092;SDS011;5085;48.092;11.484;2022-11-20T15:55:55;2.70;;;1.30;;
10092;SDS011;5085;48.092;11.484;2022-11-20T15:58:21;3.38;;;0.85;;
10092;SDS011;5085;48.092;11.484;2022-11-20T16:00:49;1.85;;;0.68;;
10092;SDS011;5085;48.092;11.484;2022-11-20T16:03:16;2.08;;;0.95;;
10092;SDS011;5085;48.092;11.484;2022-11-20T16:05:43;2.92;;;0.80;;
10092;SDS011;5085;48.092;11.484;2022-11-20T16:08:09;2.65;;;0.93;;
10092;SDS011;5085;48.092;11.484;2022-11-20T16:10:35;2.33;;;1.13;;
10092;SDS011;5085;48.092;11.484;2022-11-20T16:13:02;4.00;;;1.25;;
10092;SDS011;5085;48.092;11.484;2022-11-20T16:15:50;6.05;;;1.85;;
10092;SDS011;5085;48.092;11.484;2022-11-20T16:18:19;4.13;;;1.90;;
10092;SDS011;5085;48.092;11.484;2022-11-20T16:20:48;5.00;;;2.50;;
10092;SDS011;5085;48.092;11.484;2022-11-20T16:23:15;8.25;;;3.53;;
10092;SDS011;5085;48.092;11.484;2022-11-20T16:25:42;7.82;;;4.03;;
10092;SDS011;5085;48.092;11.484;2022-11-20T16:28:09;6.60;;;2.92;;
10092;SDS011;5085;48.092;11.484;2022-11-20T16:30:35;7.00;;;3.60;;
10092;SDS011;5085;48.092;11.484;2022-11-20T16:33:02;3.83;;;1.90;;
10092;SDS011;5085;48.092;11.484;2022-11-20T16:35:29;4.43;;;1.85;;
10092;SDS011;5085;48.092;11.484;2022-11-20T16:37:55;4.18;;;1.92;;
10092;SDS011;5085;48.092;11.484;2022-11-20T16:40:23;3.65;;;1.70;;
10092;SDS011;5085;48.092;11.484;2022-11-20T16:42:49;4.18;;;1.80;;
10092;SDS011;5085;48.092;11.484;2022-11-20T16:45:16;2.72;;;1.30;;
10092;SDS011;5085;48.092;11.484;2022-11-20T16:47:42;1.98;;;1.25;;
10092;SDS011;5085;48.092;11.484;2022-11-20T16:50:08;4.97;;;1.88;;
10092;SDS011;5085;48.092;11.484;2022-11-20T16:52:35;4.47;;;1.92;;
10092;SDS011;5085;48.092;11.484;2022-11-20T16:55:01;8.60;;;3.70;;
10092;SDS011;5085;48.092;11.484;2022-11-20T16:57:27;6.15;;;2.63;;